createdAt,value
2018-11-03T00:02:17.985Z,7.30
2018-11-03T00:04:46.095Z,6.93
2018-11-03T00:07:14.888Z,7.07
2018-11-03T00:09:43.769Z,12.60
2018-11-03T00:12:12.327Z,9.40
2018-11-03T00:14:40.716Z,8.43
2018-11-03T00:17:09.345Z,8.47
2018-11-03T00:19:37.725Z,8.67
2018-11-03T00:22:06.116Z,10.43
2018-11-03T00:24:34.572Z,11.20
2018-11-03T00:27:03.021Z,14.30
2018-11-03T00:29:35.575Z,20.43
2018-11-03T00:32:03.961Z,19.00
2018-11-03T00:34:32.358Z,12.70
2018-11-03T00:37:00.809Z,9.83
2018-11-03T00:39:29.169Z,8.60
2018-11-03T00:42:04.268Z,8.77
2018-11-03T00:44:32.671Z,8.43
2018-11-03T00:47:00.945Z,8.50
2018-11-03T00:49:29.358Z,7.73
2018-11-03T00:51:57.922Z,8.23
2018-11-03T00:54:26.908Z,8.13
2018-11-03T00:56:55.461Z,8.53
2018-11-03T00:59:24.217Z,7.47
2018-11-03T01:01:52.757Z,8.20
2018-11-03T01:04:21.526Z,8.60
2018-11-03T01:06:49.886Z,7.90
2018-11-03T01:09:18.385Z,7.87
2018-11-03T01:11:46.800Z,8.27
2018-11-03T01:14:15.893Z,8.07
2018-11-03T01:16:43.992Z,7.57
2018-11-03T01:19:13.354Z,7.00
2018-11-03T01:21:41.993Z,8.40
2018-11-03T01:24:10.685Z,8.87
2018-11-03T01:26:39.042Z,7.80
2018-11-03T01:29:07.585Z,7.53
2018-11-03T01:31:35.985Z,8.60
2018-11-03T01:34:04.353Z,9.17
2018-11-03T01:36:32.738Z,8.33
2018-11-03T01:39:01.346Z,9.50
2018-11-03T01:41:29.454Z,8.07
2018-11-03T01:43:57.549Z,7.53
2018-11-03T01:46:25.938Z,7.20
2018-11-03T01:48:54.185Z,8.20
2018-11-03T01:51:22.418Z,11.10
2018-11-03T01:53:51.403Z,9.10
2018-11-03T01:56:19.670Z,9.10
2018-11-03T01:58:48.130Z,10.20
2018-11-03T02:01:16.775Z,9.50
2018-11-03T02:03:44.910Z,8.30
2018-11-03T02:06:13.127Z,7.90
2018-11-03T02:08:41.202Z,8.30
2018-11-03T02:11:09.411Z,7.53
2018-11-03T02:13:39.086Z,7.77
2018-11-03T02:16:07.534Z,6.87
2018-11-03T02:18:35.823Z,7.20
2018-11-03T02:21:04.266Z,7.80
2018-11-03T02:23:32.463Z,7.73
2018-11-03T02:26:00.682Z,7.33
2018-11-03T02:28:28.749Z,7.90
2018-11-03T02:30:57.342Z,10.03
2018-11-03T02:33:26.734Z,10.53
2018-11-03T02:35:54.954Z,9.67
2018-11-03T02:38:23.074Z,8.60
2018-11-03T02:40:51.395Z,8.20
2018-11-03T02:43:19.979Z,8.83
2018-11-03T02:45:48.063Z,8.67
2018-11-03T02:48:16.195Z,9.13
2018-11-03T02:50:44.447Z,9.03
2018-11-03T02:53:12.658Z,8.33
2018-11-03T02:55:40.891Z,9.87
2018-11-03T02:58:08.978Z,8.53
2018-11-03T03:00:37.056Z,8.97
2018-11-03T03:03:05.283Z,8.10
2018-11-03T03:05:33.362Z,8.67
2018-11-03T03:08:01.455Z,8.13
2018-11-03T03:10:29.566Z,8.50
2018-11-03T03:12:57.911Z,7.90
2018-11-03T03:15:26.063Z,8.20
2018-11-03T03:17:54.171Z,8.53
2018-11-03T03:20:22.315Z,8.47
2018-11-03T03:22:50.369Z,8.80
2018-11-03T03:25:18.459Z,8.47
2018-11-03T03:27:46.662Z,8.37
2018-11-03T03:30:15.054Z,8.03
2018-11-03T03:32:43.254Z,7.97
2018-11-03T03:35:11.394Z,7.80
2018-11-03T03:37:39.472Z,8.17
2018-11-03T03:40:07.985Z,8.50
2018-11-03T03:42:36.019Z,8.73
2018-11-03T03:45:04.700Z,8.93
2018-11-03T03:47:32.874Z,8.10
2018-11-03T03:50:01.228Z,8.23
2018-11-03T03:52:29.656Z,7.83
2018-11-03T03:54:58.093Z,8.33
2018-11-03T03:57:26.606Z,8.50
2018-11-03T03:59:54.980Z,8.80
2018-11-03T04:02:23.123Z,8.53
2018-11-03T04:04:51.203Z,7.93
2018-11-03T04:07:19.600Z,8.23
2018-11-03T04:09:47.764Z,8.27
2018-11-03T04:12:16.228Z,8.60
2018-11-03T04:14:44.568Z,8.40
2018-11-03T04:17:13.004Z,9.10
2018-11-03T04:19:41.317Z,8.27
2018-11-03T04:22:09.685Z,8.90
2018-11-03T04:24:38.016Z,8.37
2018-11-03T04:27:06.616Z,8.67
2018-11-03T04:29:34.952Z,8.23
2018-11-03T04:32:03.363Z,8.50
2018-11-03T04:34:31.680Z,8.77
2018-11-03T04:37:00.179Z,8.20
2018-11-03T04:39:34.672Z,8.30
2018-11-03T04:42:03.012Z,7.70
2018-11-03T04:44:31.408Z,7.57
2018-11-03T04:46:59.789Z,8.70
2018-11-03T04:49:28.241Z,8.50
2018-11-03T04:51:56.689Z,8.87
2018-11-03T04:54:25.100Z,8.20
2018-11-03T04:56:53.498Z,8.57
2018-11-03T04:59:21.904Z,8.70
2018-11-03T05:01:50.297Z,9.17
2018-11-03T05:04:18.621Z,8.90
2018-11-03T05:06:46.982Z,9.10
2018-11-03T05:09:15.352Z,8.73
2018-11-03T05:11:43.677Z,9.10
2018-11-03T05:14:12.079Z,8.00
2018-11-03T05:16:40.380Z,8.10
2018-11-03T05:19:09.164Z,8.30
2018-11-03T05:21:37.597Z,8.47
2018-11-03T05:24:06.148Z,8.40
2018-11-03T05:26:34.720Z,8.17
2018-11-03T05:29:03.078Z,9.33
2018-11-03T05:31:31.385Z,8.83
2018-11-03T05:33:59.749Z,8.80
2018-11-03T05:36:28.068Z,8.53
2018-11-03T05:38:56.427Z,8.93
2018-11-03T05:41:24.740Z,8.17
2018-11-03T05:43:53.058Z,8.53
2018-11-03T05:46:21.530Z,8.00
2018-11-03T05:48:49.804Z,7.47
2018-11-03T05:51:18.194Z,8.40
2018-11-03T05:53:46.598Z,7.53
2018-11-03T05:56:14.940Z,8.10
2018-11-03T05:58:43.334Z,7.73
2018-11-03T06:01:11.710Z,8.40
2018-11-03T06:03:40.095Z,8.83
2018-11-03T06:06:08.460Z,8.77
2018-11-03T06:08:36.846Z,8.50
2018-11-03T06:11:05.598Z,9.03
2018-11-03T06:13:33.974Z,8.67
2018-11-03T06:16:02.395Z,8.10
2018-11-03T06:18:30.699Z,10.80
2018-11-03T06:20:59.078Z,14.67
2018-11-03T06:23:27.551Z,18.57
2018-11-03T06:25:55.830Z,17.50
2018-11-03T06:28:24.279Z,15.37
2018-11-03T06:30:52.663Z,14.93
2018-11-03T06:33:21.059Z,13.67
2018-11-03T06:35:49.413Z,13.67
2018-11-03T06:38:17.755Z,13.37
2018-11-03T06:40:46.096Z,12.50
2018-11-03T06:43:14.432Z,12.87
2018-11-03T06:45:42.800Z,12.87
2018-11-03T06:48:11.163Z,11.00
2018-11-03T06:50:39.547Z,10.83
2018-11-03T06:53:07.871Z,10.67
2018-11-03T06:55:36.238Z,10.57
2018-11-03T06:58:04.693Z,11.27
2018-11-03T07:00:33.059Z,11.80
2018-11-03T07:03:01.463Z,13.47
2018-11-03T07:05:29.811Z,12.67
2018-11-03T07:07:58.166Z,11.67
2018-11-03T07:10:26.595Z,15.67
2018-11-03T07:12:55.024Z,17.17
2018-11-03T07:15:23.540Z,13.83
2018-11-03T07:17:51.916Z,13.60
2018-11-03T07:20:20.584Z,14.40
2018-11-03T07:22:49.473Z,16.60
2018-11-03T07:25:17.764Z,18.37
2018-11-03T07:27:46.975Z,14.30
2018-11-03T07:30:15.556Z,11.13
2018-11-03T07:32:43.923Z,12.57
2018-11-03T07:35:12.317Z,12.10
2018-11-03T07:37:41.531Z,9.80
2018-11-03T07:40:10.568Z,11.23
2018-11-03T07:42:39.210Z,10.90
2018-11-03T07:45:08.040Z,11.07
2018-11-03T07:47:36.704Z,10.63
2018-11-03T07:50:07.464Z,10.87
2018-11-03T07:52:35.903Z,11.03
2018-11-03T07:55:04.379Z,11.40
2018-11-03T07:57:32.803Z,11.30
2018-11-03T08:00:01.169Z,11.80
2018-11-03T08:02:36.143Z,11.20
2018-11-03T08:05:04.688Z,12.00
2018-11-03T08:07:33.033Z,12.73
2018-11-03T08:10:04.400Z,14.43
2018-11-03T08:12:32.672Z,16.73
2018-11-03T08:15:01.180Z,15.17
2018-11-03T08:17:29.515Z,15.40
2018-11-03T08:19:57.777Z,14.30
2018-11-03T08:22:26.516Z,15.37
2018-11-03T08:24:54.862Z,14.00
2018-11-03T08:27:23.202Z,11.53
2018-11-03T08:29:51.550Z,9.97
2018-11-03T08:32:19.959Z,10.37
2018-11-03T08:34:48.455Z,11.43
2018-11-03T08:37:16.816Z,12.17
2018-11-03T08:39:45.195Z,11.60
2018-11-03T08:42:13.454Z,10.80
2018-11-03T08:44:41.807Z,9.60
2018-11-03T08:47:10.215Z,9.77
2018-11-03T08:49:38.515Z,10.43
2018-11-03T08:52:06.863Z,9.83
2018-11-03T08:54:35.244Z,10.07
2018-11-03T08:57:03.763Z,8.77
2018-11-03T08:59:32.093Z,8.77
2018-11-03T09:02:00.519Z,8.97
2018-11-03T09:04:28.882Z,8.60
2018-11-03T09:06:57.408Z,9.23
2018-11-03T09:09:25.746Z,10.80
2018-11-03T09:11:54.203Z,9.60
2018-11-03T09:14:22.772Z,10.07
2018-11-03T09:16:51.235Z,10.33
2018-11-03T09:19:19.716Z,9.43
2018-11-03T09:21:48.309Z,10.27
2018-11-03T09:24:17.748Z,10.70
2018-11-03T09:26:46.128Z,10.27
2018-11-03T09:29:14.487Z,11.20
2018-11-03T09:31:43.134Z,9.97
2018-11-03T09:34:11.547Z,10.83
2018-11-03T09:36:39.931Z,10.27
2018-11-03T09:39:09.838Z,10.40
2018-11-03T09:41:38.319Z,10.03
2018-11-03T09:44:06.779Z,10.10
2018-11-03T09:46:35.248Z,10.40
2018-11-03T09:49:03.719Z,10.33
2018-11-03T09:51:32.064Z,10.87
2018-11-03T09:54:00.640Z,11.77
2018-11-03T09:56:30.397Z,11.20
2018-11-03T09:58:58.836Z,11.13
2018-11-03T10:01:27.251Z,11.53
2018-11-03T10:03:55.712Z,10.53
2018-11-03T10:06:24.322Z,11.40
2018-11-03T10:08:52.684Z,11.43
2018-11-03T10:11:21.169Z,11.00
2018-11-03T10:13:49.748Z,10.90
2018-11-03T10:16:18.225Z,10.47
2018-11-03T10:18:46.582Z,11.30
2018-11-03T10:21:15.000Z,11.27
2018-11-03T10:23:43.458Z,11.40
2018-11-03T10:26:11.810Z,11.20
2018-11-03T10:28:40.337Z,11.60
2018-11-03T10:31:08.687Z,11.03
2018-11-03T10:33:37.320Z,11.13
2018-11-03T10:36:05.910Z,11.53
2018-11-03T10:38:34.321Z,12.40
2018-11-03T10:41:02.721Z,11.43
2018-11-03T10:43:31.158Z,11.13
2018-11-03T10:45:59.661Z,10.83
2018-11-03T10:48:28.042Z,11.00
2018-11-03T10:50:56.495Z,12.13
2018-11-03T10:53:24.913Z,10.93
2018-11-03T10:55:53.309Z,11.30
2018-11-03T10:58:21.786Z,11.77
2018-11-03T11:00:55.681Z,12.00
2018-11-03T11:03:29.541Z,11.17
2018-11-03T11:06:03.458Z,10.87
2018-11-03T11:08:37.266Z,11.23
2018-11-03T11:11:11.166Z,11.50
2018-11-03T11:13:40.491Z,10.37
2018-11-03T11:16:08.987Z,10.13
2018-11-03T11:18:37.353Z,11.20
2018-11-03T11:21:05.782Z,10.20
2018-11-03T11:23:34.177Z,11.27
2018-11-03T11:26:02.737Z,19.33
2018-11-03T11:28:32.018Z,16.33
2018-11-03T11:31:00.473Z,12.60
2018-11-03T11:33:28.910Z,21.07
2018-11-03T11:36:01.816Z,17.63
2018-11-03T11:38:30.218Z,14.33
2018-11-03T11:40:58.839Z,11.27
2018-11-03T11:43:27.210Z,10.20
2018-11-03T11:45:55.678Z,9.63
2018-11-03T11:48:30.651Z,10.20
2018-11-03T11:50:59.057Z,9.83
2018-11-03T11:53:27.489Z,9.93
2018-11-03T11:55:56.068Z,9.27
2018-11-03T11:58:24.658Z,8.97
2018-11-03T12:00:53.103Z,8.73
2018-11-03T12:03:21.454Z,10.20
2018-11-03T12:05:49.903Z,8.93
2018-11-03T12:08:18.299Z,8.53
2018-11-03T12:10:46.699Z,9.07
2018-11-03T12:13:15.147Z,7.83
2018-11-03T12:15:43.651Z,8.17
2018-11-03T12:18:12.007Z,8.23
2018-11-03T12:20:40.402Z,8.87
2018-11-03T12:23:08.912Z,8.80
2018-11-03T12:25:37.467Z,8.07
2018-11-03T12:28:05.835Z,6.73
2018-11-03T12:30:34.244Z,7.00
2018-11-03T12:33:02.684Z,7.07
2018-11-03T12:35:31.175Z,7.23
2018-11-03T12:38:00.439Z,7.13
2018-11-03T12:40:28.950Z,6.13
2018-11-03T12:42:57.560Z,6.40
2018-11-03T12:45:28.663Z,5.83
2018-11-03T12:47:57.315Z,5.80
2018-11-03T12:50:25.779Z,6.77
2018-11-03T12:52:54.387Z,6.93
2018-11-03T12:55:23.061Z,6.50
2018-11-03T12:57:51.552Z,8.13
2018-11-03T13:02:55.185Z,6.73
2018-11-03T13:05:23.581Z,7.07
2018-11-03T13:07:52.909Z,7.20
2018-11-03T13:10:21.513Z,6.97
2018-11-03T13:12:50.039Z,7.13
2018-11-03T13:15:18.477Z,7.27
2018-11-03T13:17:47.430Z,6.80
2018-11-03T13:20:15.993Z,7.03
2018-11-03T13:22:44.753Z,6.87
2018-11-03T13:25:13.741Z,7.33
2018-11-03T13:27:42.892Z,7.03
2018-11-03T13:30:13.429Z,6.30
2018-11-03T13:32:41.997Z,7.03
2018-11-03T13:35:11.856Z,7.00
2018-11-03T13:37:45.485Z,7.10
2018-11-03T13:40:14.836Z,6.33
2018-11-03T13:42:44.162Z,8.07
2018-11-03T13:45:12.818Z,7.20
2018-11-03T13:47:41.427Z,6.50
2018-11-03T13:50:18.444Z,5.97
2018-11-03T13:52:48.395Z,6.97
2018-11-03T13:55:16.780Z,7.00
2018-11-03T13:57:46.570Z,7.10
2018-11-03T14:00:16.606Z,5.50
2018-11-03T14:02:46.139Z,5.13
2018-11-03T14:05:14.562Z,6.50
2018-11-03T14:07:43.134Z,6.60
2018-11-03T14:10:13.854Z,6.27
2018-11-03T14:12:43.276Z,6.00
2018-11-03T14:15:13.267Z,5.93
2018-11-03T14:17:41.846Z,6.57
2018-11-03T14:20:11.759Z,6.97
2018-11-03T14:22:40.750Z,6.00
2018-11-03T14:25:10.863Z,6.03
2018-11-03T14:27:39.386Z,6.33
2018-11-03T14:30:08.807Z,6.37
2018-11-03T14:32:43.931Z,5.87
2018-11-03T14:35:13.769Z,5.90
2018-11-03T14:37:42.359Z,5.47
2018-11-03T14:40:12.974Z,4.80
2018-11-03T14:42:42.582Z,6.03
2018-11-03T14:45:12.006Z,6.70
2018-11-03T14:47:40.634Z,8.40
2018-11-03T14:50:09.396Z,9.47
2018-11-03T14:52:38.973Z,9.73
2018-11-03T14:55:08.575Z,11.20
2018-11-03T14:57:37.502Z,10.13
2018-11-03T15:00:09.779Z,10.43
2018-11-03T15:02:38.222Z,10.67
2018-11-03T15:05:07.296Z,10.80
2018-11-03T15:07:35.995Z,11.80
2018-11-03T15:10:05.455Z,11.93
2018-11-03T15:12:33.815Z,12.87
2018-11-03T15:15:02.605Z,11.87
2018-11-03T15:17:30.883Z,11.30
2018-11-03T15:19:59.286Z,10.67
2018-11-03T15:22:27.908Z,11.40
2018-11-03T15:24:56.412Z,10.57
2018-11-03T15:27:24.828Z,10.87
2018-11-03T15:29:52.967Z,10.83
2018-11-03T15:32:21.481Z,11.67
2018-11-03T15:34:49.895Z,10.60
2018-11-03T15:37:18.357Z,10.60
2018-11-03T15:39:46.779Z,11.43
2018-11-03T15:42:15.183Z,11.13
2018-11-03T15:44:43.569Z,10.73
2018-11-03T15:47:11.944Z,10.70
2018-11-03T15:49:40.540Z,11.10
2018-11-03T15:52:08.883Z,11.53
2018-11-03T15:54:37.276Z,11.93
2018-11-03T15:57:06.035Z,14.47
2018-11-03T15:59:34.463Z,14.47
2018-11-03T16:02:02.820Z,14.03
2018-11-03T16:04:31.199Z,14.43
2018-11-03T16:06:59.572Z,13.60
2018-11-03T16:09:27.976Z,13.27
2018-11-03T16:11:56.452Z,13.10
2018-11-03T16:14:24.860Z,12.47
2018-11-03T16:16:53.291Z,11.43
2018-11-03T16:19:21.761Z,12.20
2018-11-03T16:21:50.223Z,14.27
2018-11-03T16:24:18.736Z,12.87
2018-11-03T16:26:47.131Z,13.63
2018-11-03T16:29:15.252Z,12.47
2018-11-03T16:31:43.300Z,13.23
2018-11-03T16:34:11.356Z,14.00
2018-11-03T16:36:39.464Z,14.30
2018-11-03T16:39:09.668Z,13.53
2018-11-03T16:41:38.021Z,13.90
2018-11-03T16:44:06.418Z,14.40
2018-11-03T16:46:34.792Z,13.17
2018-11-03T16:49:03.267Z,14.40
2018-11-03T16:51:31.641Z,14.23
2018-11-03T16:53:59.981Z,14.27
2018-11-03T16:56:28.340Z,12.13
2018-11-03T16:58:56.761Z,12.40
2018-11-03T17:01:25.232Z,12.70
2018-11-03T17:03:53.557Z,12.37
2018-11-03T17:06:21.904Z,14.43
2018-11-03T17:08:50.240Z,14.90
2018-11-03T17:11:18.673Z,15.70
2018-11-03T17:13:46.792Z,17.20
2018-11-03T17:16:14.975Z,28.03
2018-11-03T17:18:43.406Z,36.73
2018-11-03T17:21:11.705Z,33.53
2018-11-03T17:23:40.014Z,25.90
2018-11-03T17:26:08.473Z,24.40
2018-11-03T17:28:36.780Z,23.83
2018-11-03T17:31:05.585Z,24.67
2018-11-03T17:33:33.664Z,24.20
2018-11-03T17:36:02.157Z,24.33
2018-11-03T17:38:30.753Z,23.17
2018-11-03T17:40:59.151Z,23.97
2018-11-03T17:43:27.509Z,24.77
2018-11-03T17:45:55.953Z,22.87
2018-11-03T17:48:24.272Z,33.10
2018-11-03T17:50:52.666Z,33.57
2018-11-03T17:53:21.057Z,29.10
2018-11-03T17:55:49.353Z,31.50
2018-11-03T17:58:17.773Z,41.03
2018-11-03T18:00:46.204Z,26.93
2018-11-03T18:03:14.465Z,25.70
2018-11-03T18:05:42.964Z,27.30
2018-11-03T18:08:11.109Z,28.90
2018-11-03T18:10:39.196Z,41.37
2018-11-03T18:13:07.287Z,41.73
2018-11-03T18:15:35.449Z,33.37
2018-11-03T18:18:03.730Z,26.73
2018-11-03T18:20:31.793Z,23.07
2018-11-03T18:22:59.890Z,22.43
2018-11-03T18:25:28.014Z,23.87
2018-11-03T18:27:56.090Z,24.57
2018-11-03T18:30:24.162Z,23.63
2018-11-03T18:32:52.284Z,23.37
2018-11-03T18:35:20.338Z,22.87
2018-11-03T18:37:48.466Z,20.37
2018-11-03T18:40:16.558Z,19.20
2018-11-03T18:42:44.632Z,19.87
2018-11-03T18:45:12.701Z,27.70
2018-11-03T18:47:40.790Z,27.80
2018-11-03T18:50:17.051Z,23.50
2018-11-03T18:52:45.194Z,27.60
2018-11-03T18:55:13.246Z,28.40
2018-11-03T18:57:41.759Z,32.63
2018-11-03T19:00:10.730Z,31.23
2018-11-03T19:02:39.403Z,31.73
2018-11-03T19:05:07.772Z,30.90
2018-11-03T19:07:35.886Z,33.13
2018-11-03T19:10:04.051Z,34.87
2018-11-03T19:12:32.178Z,36.50
2018-11-03T19:15:00.254Z,33.90
2018-11-03T19:17:28.314Z,35.27
2018-11-03T19:19:56.370Z,35.97
2018-11-03T19:22:24.411Z,29.70
2018-11-03T19:24:52.786Z,26.80
2018-11-03T19:27:21.198Z,24.77
2018-11-03T19:29:49.601Z,25.23
2018-11-03T19:32:17.711Z,23.03
2018-11-03T19:34:45.750Z,24.17
2018-11-03T19:37:13.867Z,24.17
2018-11-03T19:39:41.937Z,22.60
2018-11-03T19:42:10.070Z,20.80
2018-11-03T19:44:38.135Z,22.53
2018-11-03T19:47:06.210Z,24.30
2018-11-03T19:49:34.278Z,24.97
2018-11-03T19:52:02.382Z,25.40
2018-11-03T19:54:30.448Z,26.03
2018-11-03T19:56:58.554Z,26.67
2018-11-03T19:59:26.687Z,26.90
2018-11-03T20:01:55.042Z,26.33
2018-11-03T20:04:23.426Z,30.27
2018-11-03T20:06:51.523Z,30.10
2018-11-03T20:09:19.585Z,26.80
2018-11-03T20:11:47.656Z,24.43
2018-11-03T20:14:15.735Z,25.57
2018-11-03T20:16:43.847Z,27.80
2018-11-03T20:19:12.023Z,27.20
2018-11-03T20:21:40.115Z,29.07
2018-11-03T20:24:08.176Z,31.60
2018-11-03T20:26:36.355Z,33.97
2018-11-03T20:29:04.414Z,37.93
2018-11-03T20:31:32.546Z,38.20
2018-11-03T20:34:00.800Z,35.40
2018-11-03T20:36:28.941Z,30.53
2018-11-03T20:38:57.043Z,30.27
2018-11-03T20:41:25.180Z,28.43
2018-11-03T20:43:53.244Z,27.60
2018-11-03T20:46:21.272Z,26.10
2018-11-03T20:48:49.350Z,26.57
2018-11-03T20:51:17.400Z,29.17
2018-11-03T20:53:45.482Z,28.57
2018-11-03T20:56:13.556Z,26.63
2018-11-03T20:58:41.608Z,27.03
2018-11-03T21:01:09.664Z,26.33
2018-11-03T21:03:37.707Z,24.73
2018-11-03T21:06:05.787Z,22.83
2018-11-03T21:08:33.853Z,22.17
2018-11-03T21:11:01.960Z,20.07
2018-11-03T21:13:30.086Z,20.13
2018-11-03T21:15:58.169Z,23.60
2018-11-03T21:18:26.345Z,24.07
2018-11-03T21:20:55.043Z,24.13
2018-11-03T21:23:23.444Z,23.83
2018-11-03T21:25:51.514Z,25.47
2018-11-03T21:28:19.601Z,26.13
2018-11-03T21:30:47.939Z,25.27
2018-11-03T21:33:16.067Z,23.50
2018-11-03T21:35:44.110Z,23.73
2018-11-03T21:38:12.252Z,22.90
2018-11-03T21:40:40.296Z,23.27
2018-11-03T21:43:08.406Z,24.33
2018-11-03T21:45:36.490Z,23.20
2018-11-03T21:48:04.747Z,22.97
2018-11-03T21:50:32.785Z,22.03
2018-11-03T21:53:00.878Z,22.67
2018-11-03T21:55:28.954Z,21.27
2018-11-03T21:57:57.025Z,21.13
2018-11-03T22:00:25.091Z,21.57
2018-11-03T22:02:53.134Z,20.50
2018-11-03T22:05:21.227Z,19.90
2018-11-03T22:07:49.342Z,20.30
2018-11-03T22:10:17.399Z,21.73
2018-11-03T22:12:45.447Z,22.00
2018-11-03T22:15:13.516Z,22.33
2018-11-03T22:17:41.559Z,21.87
2018-11-03T22:20:10.350Z,19.83
2018-11-03T22:22:38.732Z,21.70
2018-11-03T22:25:07.155Z,21.17
2018-11-03T22:27:35.720Z,21.37
2018-11-03T22:30:03.869Z,20.27
2018-11-03T22:32:31.919Z,21.07
2018-11-03T22:34:59.979Z,21.40
2018-11-03T22:37:28.127Z,29.63
2018-11-03T22:39:56.223Z,26.17
2018-11-03T22:42:24.295Z,24.17
2018-11-03T22:44:52.332Z,22.50
2018-11-03T22:47:20.378Z,22.23
2018-11-03T22:49:48.504Z,21.70
2018-11-03T22:52:16.612Z,21.17
2018-11-03T22:54:44.679Z,21.17
2018-11-03T22:57:13.236Z,21.67
2018-11-03T22:59:41.534Z,19.47
2018-11-03T23:02:09.891Z,19.83
2018-11-03T23:04:38.412Z,18.97
2018-11-03T23:07:06.796Z,18.97
2018-11-03T23:09:35.219Z,19.37
2018-11-03T23:12:04.284Z,19.30
2018-11-03T23:14:32.656Z,19.80
2018-11-03T23:17:01.011Z,20.17
2018-11-03T23:19:29.369Z,20.57
2018-11-03T23:21:57.779Z,19.77
2018-11-03T23:24:26.068Z,18.90
2018-11-03T23:26:54.360Z,20.50
2018-11-03T23:29:22.758Z,19.63
2018-11-03T23:31:50.799Z,18.57
2018-11-03T23:34:18.876Z,20.00
2018-11-03T23:36:47.056Z,19.10
2018-11-03T23:39:15.121Z,19.70
2018-11-03T23:41:43.208Z,19.57
2018-11-03T23:44:11.296Z,20.17
2018-11-03T23:46:39.368Z,20.93
2018-11-03T23:49:07.469Z,20.50
2018-11-03T23:51:35.563Z,20.10
2018-11-03T23:54:03.649Z,19.90
2018-11-03T23:56:31.733Z,21.60
2018-11-03T23:59:00.077Z,22.27
